Antonia, MO

10:49 AM CST on January 30, 2015 (GMT -0600)
APRSWXNET Arnold MO US | Change Station
CLOSE
Current Station
Personal Weather Station
Location: Sulphur Springs, MO
Elevation: 455 ft
Nearby Weather Stations
Active Advisory: Special Statement

Elev 455 ft 38.40 °N, 90.40 °W | Updated 41 minutes ago

Clear
Clear
31 °F
Feels Like 31 °F
N
1
Wind Variable Wind from NNW
Gusts 8.0 mph

Today
High -- | Low -- °F
--% Chance of Precip.
Yesterday
High -- | Low -- °F
Precip. -- in
7:08 AM 5:21 PM
Waxing Gibbous, 83% visible
Pressure 30.58 in
Visibility 10.0 miles
Clouds Clear
Windchill 31 °F
Dew Point 20 °F
Humidity 62%
Rainfall 0.00 in
Snow Depth Not available.
UV 2 out of 12
Pollen .10 out of 12
Air Quality Not available.
Flu Activity Not available.
METAR KCPS 301553Z 03008KT 10SM CLR 00/M07 A3056 RMK AO2 SLP353 T00001072

More Conditions Fewer Conditions

Pressure 30.58 in
Visibility 10.0 miles
Clouds Clear
Windchill 31 °F
Dew Point 20 °F
Humidity 62%
Rainfall 0.00 in
Snow Depth Not available.
UV 2 out of 12
Pollen .10 out of 12
Air Quality Not available.
Flu Activity Not available.
METAR KCPS 301553Z 03008KT 10SM CLR 00/M07 A3056 RMK AO2 SLP353 T00001072

More Conditions Fewer Conditions

10-Day Weather Forecast

Almanac

Astronomy

Jan. 30, 2015 Rise Set
Actual Time
Civil Twilight
Nautical Twilight
Astronomical Twilight
Moon
Length of Visible Light
Length of Day
Tomorrow will be .
, % of the Moon is Illuminated

Today's Extremes

State Highs State Lows

Community

WunderPhotos

Upload Photos

1,791,809 photos uploaded!

WunderBlogs® & News

Nearby

Air Quality

  Air Quality AQ Index Pollutant
Not available.

Snow Depth

Station Depth Elevation

Earthquake Activity

City Distance Mag. Time & Date
Minimum magnitude displayed is 2.5.

Coastal Water Temperatures

Place Temperature

Nearby Weather Stations